createdAt,value
2019-03-01T00:01:04.532Z,9.82
2019-03-01T00:03:33.677Z,9.84
2019-03-01T00:06:26.280Z,9.80
2019-03-01T00:09:41.506Z,9.83
2019-03-01T00:12:52.821Z,9.81
2019-03-01T00:15:25.991Z,9.85
2019-03-01T00:18:51.766Z,9.79
2019-03-01T00:21:43.534Z,9.82
2019-03-01T00:24:36.203Z,9.80
2019-03-01T00:27:52.634Z,9.84
2019-03-01T00:31:03.226Z,9.82
2019-03-01T00:34:13.859Z,9.80
2019-03-01T00:37:27.150Z,9.82
2019-03-01T00:40:08.650Z,9.83
2019-03-01T00:43:20.247Z,9.88
2019-03-01T00:45:49.453Z,9.91
2019-03-01T00:48:20.626Z,9.89
2019-03-01T00:50:50.256Z,9.90
2019-03-01T00:53:19.372Z,9.87
2019-03-01T00:55:48.443Z,9.86
2019-03-01T00:58:17.515Z,9.97
2019-03-01T01:00:48.657Z,9.91
2019-03-01T01:03:17.854Z,9.99
2019-03-01T01:05:47.230Z,10.04
2019-03-01T01:08:16.348Z,10.01
2019-03-01T01:10:45.635Z,10.01
2019-03-01T01:13:14.703Z,9.96
2019-03-01T01:15:44.134Z,9.98
2019-03-01T01:18:13.372Z,9.96
2019-03-01T01:20:42.631Z,10.04
2019-03-01T01:23:11.743Z,10.06
2019-03-01T01:25:42.421Z,10.03
2019-03-01T01:28:11.598Z,10.07
2019-03-01T01:30:40.677Z,10.05
2019-03-01T01:33:10.376Z,10.00
2019-03-01T01:35:39.930Z,10.08
2019-03-01T01:38:09.358Z,10.07
2019-03-01T01:40:38.733Z,10.06
2019-03-01T01:43:07.774Z,10.07
2019-03-01T01:45:36.988Z,10.08
2019-03-01T01:48:06.073Z,10.10
2019-03-01T01:50:35.179Z,10.13
2019-03-01T01:53:04.372Z,10.14
2019-03-01T01:55:33.723Z,10.06
2019-03-01T01:58:02.789Z,10.12
2019-03-01T02:00:32.065Z,10.07
2019-03-01T02:03:01.143Z,10.07
2019-03-01T02:05:30.417Z,10.02
2019-03-01T02:07:59.682Z,10.06
2019-03-01T02:10:28.762Z,10.07
2019-03-01T02:12:58.175Z,10.04
2019-03-01T02:15:27.254Z,10.04
2019-03-01T02:17:56.437Z,10.00
2019-03-01T02:20:25.748Z,10.05
2019-03-01T02:22:54.889Z,10.04
2019-03-01T02:25:24.001Z,9.97
2019-03-01T02:27:53.457Z,9.99
2019-03-01T02:30:24.610Z,10.04
2019-03-01T02:32:53.875Z,10.04
2019-03-01T02:35:25.225Z,10.01
2019-03-01T02:37:55.075Z,10.05
2019-03-01T02:40:24.176Z,10.04
2019-03-01T02:42:53.232Z,10.02
2019-03-01T02:45:22.962Z,10.02
2019-03-01T02:47:52.559Z,10.00
2019-03-01T02:50:21.749Z,10.05
2019-03-01T02:52:50.858Z,10.05
2019-03-01T02:55:20.596Z,10.09
2019-03-01T02:57:49.943Z,10.03
2019-03-01T03:00:20.999Z,10.05
2019-03-01T03:02:50.394Z,10.06
2019-03-01T03:05:19.551Z,10.06
2019-03-01T03:07:50.616Z,10.07
2019-03-01T03:10:19.950Z,10.04
2019-03-01T03:12:50.318Z,9.97
2019-03-01T03:15:25.241Z,10.07
2019-03-01T03:17:54.413Z,10.08
2019-03-01T03:20:23.513Z,10.06
2019-03-01T03:22:52.758Z,10.04
2019-03-01T03:25:22.078Z,10.00
2019-03-01T03:27:51.261Z,10.00
2019-03-01T03:30:20.869Z,10.04
2019-03-01T03:32:49.881Z,9.97
2019-03-01T03:35:18.971Z,10.02
2019-03-01T03:37:48.148Z,9.97
2019-03-01T03:40:17.438Z,10.03
2019-03-01T03:42:46.732Z,10.06
2019-03-01T03:45:15.833Z,10.04
2019-03-01T03:47:44.963Z,10.06
2019-03-01T03:50:14.232Z,10.02
2019-03-01T03:52:43.484Z,10.12
2019-03-01T03:55:13.702Z,10.11
2019-03-01T03:57:42.847Z,10.14
2019-03-01T04:00:20.998Z,10.12
2019-03-01T04:02:50.067Z,10.08
2019-03-01T04:05:19.593Z,10.09
2019-03-01T04:07:49.045Z,10.15
2019-03-01T04:10:18.271Z,10.13
2019-03-01T04:12:47.332Z,10.17
2019-03-01T04:15:16.658Z,10.11
2019-03-01T04:17:45.788Z,10.15
2019-03-01T04:20:16.309Z,10.10
2019-03-01T04:22:45.429Z,10.06
2019-03-01T04:25:14.552Z,10.08
2019-03-01T04:27:43.993Z,10.08
2019-03-01T04:30:15.386Z,9.97
2019-03-01T04:32:44.505Z,9.90
2019-03-01T04:35:15.050Z,9.84
2019-03-01T04:37:44.351Z,9.73
2019-03-01T04:40:14.093Z,9.67
2019-03-01T04:42:43.425Z,9.58
2019-03-01T04:45:13.113Z,9.51
2019-03-01T04:47:42.167Z,9.50
2019-03-01T04:50:11.219Z,9.43
2019-03-01T04:52:40.691Z,9.44
2019-03-01T04:55:21.228Z,9.42
2019-03-01T04:57:50.714Z,9.33
2019-03-01T05:00:22.407Z,9.28
2019-03-01T05:02:51.518Z,9.24
2019-03-01T05:05:20.540Z,9.18
2019-03-01T05:07:49.900Z,9.12
2019-03-01T05:10:18.963Z,9.08
2019-03-01T05:12:48.134Z,9.07
2019-03-01T05:15:19.181Z,9.11
2019-03-01T05:17:48.323Z,9.04
2019-03-01T05:20:17.506Z,9.02
2019-03-01T05:22:46.746Z,8.89
2019-03-01T05:25:15.976Z,8.89
2019-03-01T05:27:45.030Z,8.90
2019-03-01T05:30:16.120Z,8.88
2019-03-01T05:32:45.476Z,8.86
2019-03-01T05:35:14.931Z,8.87
2019-03-01T05:37:43.968Z,8.86
2019-03-01T05:40:13.567Z,8.84
2019-03-01T05:42:42.604Z,8.79
2019-03-01T05:45:14.595Z,8.73
2019-03-01T05:47:43.689Z,8.62
2019-03-01T05:50:13.531Z,8.69
2019-03-01T05:52:42.815Z,8.65
2019-03-01T05:55:12.025Z,8.62
2019-03-01T05:58:18.326Z,8.53
2019-03-01T06:00:47.455Z,8.60
2019-03-01T06:03:57.569Z,8.68
2019-03-01T06:06:41.109Z,8.68
2019-03-01T06:09:37.726Z,8.63
2019-03-01T06:12:37.352Z,8.64
2019-03-01T06:15:51.424Z,8.64
2019-03-01T06:19:06.080Z,8.70
2019-03-01T06:22:03.687Z,8.61
2019-03-01T06:25:10.060Z,8.67
2019-03-01T06:28:18.269Z,8.69
2019-03-01T06:31:28.174Z,8.68
2019-03-01T06:34:20.856Z,8.67
2019-03-01T06:36:59.819Z,8.62
2019-03-01T06:40:40.675Z,8.61
2019-03-01T06:43:51.294Z,8.67
2019-03-01T06:46:41.451Z,8.70
2019-03-01T06:49:29.479Z,8.75
2019-03-01T06:51:58.716Z,8.78
2019-03-01T06:54:27.778Z,8.78
2019-03-01T06:56:57.804Z,8.81
2019-03-01T06:59:26.926Z,8.78
2019-03-01T07:01:56.008Z,8.85
2019-03-01T07:04:25.263Z,8.91
2019-03-01T07:06:54.481Z,8.90
2019-03-01T07:09:23.650Z,8.90
2019-03-01T07:11:52.960Z,8.91
2019-03-01T07:14:22.262Z,8.90
2019-03-01T07:16:51.371Z,8.90
2019-03-01T07:19:20.826Z,8.89
2019-03-01T07:21:49.859Z,8.87
2019-03-01T07:24:19.257Z,8.90
2019-03-01T07:26:48.487Z,8.92
2019-03-01T07:29:17.551Z,8.90
2019-03-01T07:31:46.727Z,8.93
2019-03-01T07:34:15.936Z,8.92
2019-03-01T07:36:45.263Z,8.99
2019-03-01T07:39:14.349Z,8.96
2019-03-01T07:41:43.412Z,8.98
2019-03-01T07:44:12.684Z,9.04
2019-03-01T07:46:41.897Z,8.97
2019-03-01T07:49:11.274Z,8.94
2019-03-01T07:51:40.358Z,8.99
2019-03-01T07:54:09.591Z,9.01
2019-03-01T07:56:39.846Z,8.96
2019-03-01T07:59:10.031Z,8.93
2019-03-01T08:01:39.441Z,8.89
2019-03-01T08:04:08.717Z,8.93
2019-03-01T08:06:37.759Z,8.88
2019-03-01T08:09:12.369Z,8.88
2019-03-01T08:11:41.438Z,8.91
2019-03-01T08:14:10.484Z,8.97
2019-03-01T08:16:39.785Z,8.96
2019-03-01T08:19:08.842Z,8.97
2019-03-01T08:21:37.931Z,8.95
2019-03-01T08:24:07.711Z,8.86
2019-03-01T08:26:38.340Z,8.90
2019-03-01T08:29:07.554Z,8.94
2019-03-01T08:31:36.839Z,8.97
2019-03-01T08:34:05.934Z,8.99
2019-03-01T08:36:38.684Z,8.96
2019-03-01T08:39:07.126Z,8.97
2019-03-01T08:41:36.671Z,9.02
2019-03-01T08:44:05.805Z,9.02
2019-03-01T08:46:35.081Z,9.13
2019-03-01T08:49:06.735Z,9.09
2019-03-01T08:51:35.453Z,9.22
2019-03-01T08:54:04.645Z,9.29
2019-03-01T08:56:33.805Z,9.38
2019-03-01T08:59:03.186Z,9.39
2019-03-01T09:01:32.391Z,9.48
2019-03-01T09:04:05.043Z,9.52
2019-03-01T09:06:34.131Z,9.49
2019-03-01T09:09:04.954Z,9.52
2019-03-01T09:11:34.057Z,9.58
2019-03-01T09:14:03.418Z,9.52
2019-03-01T09:16:32.611Z,9.55
2019-03-01T09:19:01.841Z,9.54
2019-03-01T09:21:31.017Z,9.59
2019-03-01T09:24:00.239Z,9.54
2019-03-01T09:26:29.470Z,9.52
2019-03-01T09:28:58.578Z,9.55
2019-03-01T09:31:27.815Z,9.49
2019-03-01T09:33:57.413Z,9.49
2019-03-01T09:36:47.231Z,9.48
2019-03-01T09:39:18.007Z,9.42
2019-03-01T09:41:47.290Z,9.36
2019-03-01T09:44:16.419Z,9.38
2019-03-01T09:46:45.666Z,9.47
2019-03-01T09:49:17.122Z,9.53
2019-03-01T09:51:49.173Z,9.43
2019-03-01T09:54:17.215Z,9.35
2019-03-01T09:56:46.548Z,9.41
2019-03-01T09:59:15.721Z,9.34
2019-03-01T10:01:44.918Z,9.32
2019-03-01T10:04:14.586Z,9.27
2019-03-01T10:06:43.626Z,9.22
2019-03-01T10:09:12.967Z,9.19
2019-03-01T10:11:42.042Z,9.16
2019-03-01T10:14:11.120Z,9.11
2019-03-01T10:16:41.593Z,9.14
2019-03-01T10:19:12.258Z,9.17
2019-03-01T10:21:41.485Z,9.17
2019-03-01T10:24:10.866Z,9.20
2019-03-01T10:26:40.043Z,9.06
2019-03-01T10:29:09.320Z,9.18
2019-03-01T10:31:38.449Z,9.18
2019-03-01T10:34:07.978Z,9.21
2019-03-01T10:36:37.176Z,9.19
2019-03-01T10:39:11.934Z,9.19
2019-03-01T10:41:41.098Z,9.20
2019-03-01T10:44:10.339Z,9.21
2019-03-01T10:46:39.838Z,9.30
2019-03-01T10:49:08.914Z,9.25
2019-03-01T10:51:38.239Z,9.28
2019-03-01T10:54:07.327Z,9.37
2019-03-01T10:56:36.443Z,9.34
2019-03-01T10:59:05.727Z,9.34
2019-03-01T11:01:34.983Z,9.38
2019-03-01T11:04:04.331Z,9.45
2019-03-01T11:06:33.361Z,9.43
2019-03-01T11:09:02.924Z,9.38
2019-03-01T11:11:32.005Z,9.45
2019-03-01T11:14:01.367Z,9.53
2019-03-01T11:16:30.568Z,9.52
2019-03-01T11:18:59.624Z,9.60
2019-03-01T11:21:28.844Z,9.58
2019-03-01T11:23:59.857Z,9.72
2019-03-01T11:26:29.049Z,9.75
2019-03-01T11:28:58.377Z,9.77
2019-03-01T11:31:27.540Z,9.81
2019-03-01T11:33:56.784Z,9.81
2019-03-01T11:36:26.047Z,9.80
2019-03-01T11:38:55.261Z,9.80
2019-03-01T11:41:24.432Z,9.84
2019-03-01T11:43:53.751Z,9.73
2019-03-01T11:46:22.936Z,9.77
2019-03-01T11:48:52.253Z,9.85
2019-03-01T11:51:21.548Z,9.88
2019-03-01T11:53:50.889Z,9.86
2019-03-01T11:56:20.120Z,9.91
2019-03-01T11:58:49.220Z,9.92
2019-03-01T12:01:18.281Z,9.90
2019-03-01T12:03:47.544Z,9.87
2019-03-01T12:06:16.648Z,9.87
2019-03-01T12:08:46.011Z,9.85
2019-03-01T12:11:15.268Z,9.77
2019-03-01T12:13:44.548Z,9.85
2019-03-01T12:16:13.614Z,9.83
2019-03-01T12:18:42.702Z,9.95
2019-03-01T12:21:12.130Z,10.01
2019-03-01T12:23:41.313Z,10.01
2019-03-01T12:26:10.512Z,10.02
2019-03-01T12:28:39.633Z,10.04
2019-03-01T12:31:08.848Z,10.10
2019-03-01T12:33:38.195Z,10.25
2019-03-01T12:36:07.319Z,10.24
2019-03-01T12:38:36.712Z,10.24
2019-03-01T12:41:05.766Z,10.34
2019-03-01T12:43:35.075Z,10.42
2019-03-01T12:46:04.378Z,10.53
2019-03-01T12:48:33.502Z,10.52
2019-03-01T12:51:02.756Z,10.53
2019-03-01T12:53:31.960Z,10.56
2019-03-01T12:56:01.216Z,10.58
2019-03-01T12:58:30.366Z,10.56
2019-03-01T13:00:59.520Z,10.64
2019-03-01T13:03:30.592Z,10.68
2019-03-01T13:06:00.626Z,10.75
2019-03-01T13:08:30.082Z,10.70
2019-03-01T13:10:59.318Z,10.76
2019-03-01T13:13:28.678Z,10.84
2019-03-01T13:15:57.936Z,10.94
2019-03-01T13:18:27.004Z,10.99
2019-03-01T13:20:56.599Z,11.04
2019-03-01T13:23:25.703Z,11.00
2019-03-01T13:25:54.802Z,11.11
2019-03-01T13:28:23.982Z,11.31
2019-03-01T13:30:53.388Z,11.48
2019-03-01T13:33:22.471Z,11.63
2019-03-01T13:35:51.816Z,11.73
2019-03-01T13:38:21.254Z,11.91
2019-03-01T13:40:50.591Z,11.96
2019-03-01T13:43:19.677Z,12.14
2019-03-01T13:46:03.353Z,12.19
2019-03-01T13:48:33.487Z,12.27
2019-03-01T13:51:02.565Z,12.31
2019-03-01T13:53:33.352Z,12.42
2019-03-01T13:56:03.019Z,12.55
2019-03-01T13:58:32.124Z,12.63
2019-03-01T14:01:01.318Z,12.66
2019-03-01T14:03:30.864Z,12.66
2019-03-01T14:05:59.891Z,12.50
2019-03-01T14:08:29.211Z,12.42
2019-03-01T14:10:58.370Z,12.47
2019-03-01T14:13:29.152Z,12.42
2019-03-01T14:15:58.642Z,12.32
2019-03-01T14:18:27.918Z,12.09
2019-03-01T14:20:58.226Z,12.04
2019-03-01T14:23:28.382Z,11.84
2019-03-01T14:25:59.228Z,11.76
2019-03-01T14:28:29.848Z,11.79
2019-03-01T14:30:58.971Z,11.68
2019-03-01T14:33:29.924Z,11.58
2019-03-01T14:36:02.704Z,11.51
2019-03-01T14:38:31.034Z,11.52
2019-03-01T14:41:00.670Z,11.45
2019-03-01T14:43:30.017Z,11.42
2019-03-01T14:46:00.312Z,11.34
2019-03-01T14:48:29.648Z,11.35
2019-03-01T14:50:58.744Z,11.27
2019-03-01T14:53:31.182Z,11.21
2019-03-01T14:56:07.543Z,11.20
2019-03-01T14:58:51.421Z,11.25
2019-03-01T15:01:34.930Z,11.24
2019-03-01T15:04:04.045Z,11.18
2019-03-01T15:06:33.906Z,11.27
2019-03-01T15:09:03.298Z,11.28
2019-03-01T15:11:32.431Z,11.20
2019-03-01T15:14:01.560Z,11.24
2019-03-01T15:16:30.742Z,11.32
2019-03-01T15:19:00.492Z,11.25
2019-03-01T15:21:29.573Z,11.21
2019-03-01T15:24:00.110Z,11.20
2019-03-01T15:26:31.812Z,11.18
2019-03-01T15:29:01.836Z,11.07
2019-03-01T15:31:31.000Z,11.10
2019-03-01T15:34:00.222Z,11.18
2019-03-01T15:36:29.397Z,11.11
2019-03-01T15:38:58.561Z,11.11
2019-03-01T15:41:27.863Z,11.13
2019-03-01T15:43:57.097Z,11.11
2019-03-01T15:46:26.249Z,11.12
2019-03-01T15:48:55.453Z,11.03
2019-03-01T15:51:26.573Z,11.02
2019-03-01T15:53:57.587Z,11.08
2019-03-01T15:56:26.684Z,11.05
2019-03-01T15:58:56.812Z,10.98
2019-03-01T16:01:26.266Z,11.02
2019-03-01T16:03:57.211Z,10.93
2019-03-01T16:06:26.744Z,10.98
2019-03-01T16:08:56.081Z,11.00
2019-03-01T16:11:25.355Z,11.08
2019-03-01T16:13:54.498Z,11.09
2019-03-01T16:16:23.856Z,11.09
2019-03-01T16:18:53.083Z,11.11
2019-03-01T16:21:22.176Z,11.05
2019-03-01T16:23:52.334Z,10.98
2019-03-01T16:26:29.648Z,11.05
2019-03-01T16:28:54.111Z,10.96
2019-03-01T16:31:28.958Z,11.01
2019-03-01T16:34:00.957Z,10.94
2019-03-01T16:36:47.355Z,10.87
2019-03-01T16:39:16.666Z,10.84
2019-03-01T16:41:46.116Z,10.83
2019-03-01T16:44:15.389Z,10.74
2019-03-01T16:46:44.646Z,10.68
2019-03-01T16:49:13.848Z,10.67
2019-03-01T16:51:42.971Z,10.65
2019-03-01T16:54:15.508Z,10.60
2019-03-01T16:56:43.430Z,10.63
2019-03-01T16:59:12.846Z,10.54
2019-03-01T17:01:41.967Z,10.53
2019-03-01T17:04:11.023Z,10.39
2019-03-01T17:06:40.369Z,10.40
2019-03-01T17:09:11.771Z,10.39
2019-03-01T17:11:41.390Z,10.32
2019-03-01T17:14:11.498Z,10.44
2019-03-01T17:16:40.622Z,10.45
2019-03-01T17:19:09.731Z,10.41
2019-03-01T17:21:38.803Z,10.26
2019-03-01T17:24:08.846Z,10.32
2019-03-01T17:26:39.124Z,10.30
2019-03-01T17:29:08.363Z,10.26
2019-03-01T17:31:37.453Z,10.34
2019-03-01T17:34:06.728Z,10.28
2019-03-01T17:36:35.970Z,10.23
2019-03-01T17:39:07.669Z,10.21
2019-03-01T17:41:36.729Z,10.18
2019-03-01T17:44:08.711Z,10.11
2019-03-01T17:46:36.728Z,10.15
2019-03-01T17:49:05.922Z,10.12
2019-03-01T17:51:35.084Z,10.19
2019-03-01T17:54:04.536Z,10.10
2019-03-01T17:56:33.641Z,10.08
2019-03-01T17:59:02.907Z,10.07
2019-03-01T18:01:32.172Z,10.14
2019-03-01T18:04:01.847Z,10.04
2019-03-01T18:06:31.841Z,10.12
2019-03-01T18:09:00.931Z,10.07
2019-03-01T18:11:29.979Z,9.99
2019-03-01T18:14:00.789Z,10.01
2019-03-01T18:16:30.700Z,10.03
2019-03-01T18:18:59.847Z,9.96
2019-03-01T18:21:29.038Z,9.88
2019-03-01T18:23:58.265Z,9.98
2019-03-01T18:26:27.344Z,9.91
2019-03-01T18:28:56.587Z,9.82
2019-03-01T18:31:27.874Z,9.87
2019-03-01T18:33:57.347Z,9.85
2019-03-01T18:36:31.262Z,9.74
2019-03-01T18:39:00.171Z,9.75
2019-03-01T18:41:29.560Z,9.71
2019-03-01T18:43:59.034Z,9.72
2019-03-01T18:46:28.495Z,9.66
2019-03-01T18:48:58.909Z,9.69
2019-03-01T18:51:28.260Z,9.60
2019-03-01T18:54:00.769Z,9.51
2019-03-01T18:56:29.554Z,9.54
2019-03-01T18:58:58.711Z,9.55
2019-03-01T19:01:27.914Z,9.53
2019-03-01T19:03:58.979Z,9.46
2019-03-01T19:06:29.287Z,9.56
2019-03-01T19:08:58.543Z,9.44
2019-03-01T19:11:28.041Z,9.44
2019-03-01T19:14:01.848Z,9.47
2019-03-01T19:16:30.168Z,9.43
2019-03-01T19:18:59.318Z,9.42
2019-03-01T19:21:28.552Z,9.42
2019-03-01T19:23:57.721Z,9.37
2019-03-01T19:26:26.942Z,9.43
2019-03-01T19:28:58.975Z,9.39
2019-03-01T19:31:27.809Z,9.41
2019-03-01T19:33:56.929Z,9.37
2019-03-01T19:36:25.967Z,9.37
2019-03-01T19:38:56.780Z,9.42
2019-03-01T19:41:26.204Z,9.34
2019-03-01T19:43:57.776Z,9.26
2019-03-01T19:46:26.721Z,9.33
2019-03-01T19:48:57.677Z,9.25
2019-03-01T19:51:27.005Z,9.20
2019-03-01T19:53:57.338Z,9.30
2019-03-01T19:56:27.355Z,9.20
2019-03-01T19:58:56.713Z,9.21
2019-03-01T20:01:25.794Z,9.17
2019-03-01T20:03:57.047Z,9.14
2019-03-01T20:06:25.836Z,9.15
2019-03-01T20:08:55.026Z,9.19
2019-03-01T20:11:26.832Z,9.14
2019-03-01T20:13:55.605Z,9.15
2019-03-01T20:16:25.332Z,9.18
2019-03-01T20:18:54.511Z,9.18
2019-03-01T20:21:23.616Z,9.09
2019-03-01T20:23:52.838Z,9.04
2019-03-01T20:26:23.436Z,9.04
2019-03-01T20:28:53.025Z,9.06
2019-03-01T20:31:22.502Z,9.14
2019-03-01T20:33:51.663Z,9.12
2019-03-01T20:36:20.799Z,9.13
2019-03-01T20:38:50.415Z,9.17
2019-03-01T20:41:19.606Z,9.12
2019-03-01T20:43:48.723Z,9.06
2019-03-01T20:46:17.809Z,9.15
2019-03-01T20:48:46.901Z,9.11
2019-03-01T20:51:16.123Z,9.13
2019-03-01T20:53:48.978Z,9.03
2019-03-01T20:56:17.128Z,9.07
2019-03-01T20:58:46.329Z,9.14
2019-03-01T21:01:15.508Z,9.13
2019-03-01T21:03:44.644Z,9.10
2019-03-01T21:06:13.905Z,9.05
2019-03-01T21:08:43.129Z,9.04
2019-03-01T21:11:12.226Z,8.97
2019-03-01T21:13:41.327Z,9.02
2019-03-01T21:16:10.416Z,8.97
2019-03-01T21:18:39.512Z,8.97
2019-03-01T21:21:08.778Z,8.92
2019-03-01T21:23:38.374Z,8.93
2019-03-01T21:26:08.074Z,8.89
2019-03-01T21:28:37.469Z,8.91
2019-03-01T21:31:06.818Z,8.91
2019-03-01T21:33:35.941Z,8.88
2019-03-01T21:36:05.086Z,8.88
2019-03-01T21:38:34.397Z,8.87
2019-03-01T21:41:06.322Z,8.86
2019-03-01T21:43:36.737Z,8.79
2019-03-01T21:46:05.874Z,8.87
2019-03-01T21:48:35.200Z,8.90
2019-03-01T21:51:04.418Z,8.91
2019-03-01T21:53:36.427Z,8.75
2019-03-01T21:56:08.331Z,8.76
2019-03-01T21:58:38.571Z,8.84
2019-03-01T22:01:07.896Z,8.85
2019-03-01T22:03:37.338Z,8.84
2019-03-01T22:06:06.562Z,8.84
2019-03-01T22:08:35.794Z,8.75
2019-03-01T22:11:04.979Z,8.86
2019-03-01T22:13:35.745Z,8.80
2019-03-01T22:16:06.263Z,8.79
2019-03-01T22:18:36.383Z,8.68
2019-03-01T22:21:05.631Z,8.61
2019-03-01T22:23:34.954Z,8.72
2019-03-01T22:26:04.137Z,8.67
2019-03-01T22:28:36.188Z,8.72
2019-03-01T22:31:05.367Z,8.67
2019-03-01T22:33:34.652Z,8.64
2019-03-01T22:36:03.930Z,8.60
2019-03-01T22:38:33.127Z,8.61
2019-03-01T22:41:03.959Z,8.64
2019-03-01T22:43:33.618Z,8.61
2019-03-01T22:46:02.717Z,8.68
2019-03-01T22:48:32.054Z,8.58
2019-03-01T22:51:01.432Z,8.53
2019-03-01T22:53:30.466Z,8.58
2019-03-01T22:56:00.079Z,8.56
2019-03-01T22:58:32.819Z,8.64
2019-03-01T23:01:22.068Z,8.54
2019-03-01T23:03:56.610Z,8.52
2019-03-01T23:06:25.793Z,8.58
2019-03-01T23:08:55.180Z,8.57
2019-03-01T23:11:28.744Z,8.54
2019-03-01T23:13:58.409Z,8.55
2019-03-01T23:16:27.536Z,8.51
2019-03-01T23:18:57.088Z,8.52
2019-03-01T23:21:26.137Z,8.45
2019-03-01T23:23:55.872Z,8.34
2019-03-01T23:26:26.340Z,8.36
2019-03-01T23:28:55.571Z,8.44
2019-03-01T23:31:24.736Z,8.42
2019-03-01T23:33:54.379Z,8.47
2019-03-01T23:36:24.870Z,8.42
2019-03-01T23:38:54.372Z,8.37
2019-03-01T23:41:23.707Z,8.29
2019-03-01T23:43:52.905Z,8.38
2019-03-01T23:46:22.053Z,8.40
2019-03-01T23:48:51.369Z,8.28
2019-03-01T23:51:20.801Z,8.26
2019-03-01T23:53:50.076Z,8.34
2019-03-01T23:56:19.329Z,8.35
2019-03-01T23:58:51.853Z,8.33
